createdAt,value
2023-02-08T00:01:25.932Z,101898.88
2023-02-08T00:03:55.083Z,101902.09
2023-02-08T00:06:23.491Z,101902.10
2023-02-08T00:08:51.977Z,101899.48
2023-02-08T00:11:20.366Z,101902.71
2023-02-08T00:13:49.149Z,101900.36
2023-02-08T00:16:18.896Z,101902.16
2023-02-08T00:18:47.870Z,101896.60
2023-02-08T00:21:17.482Z,101898.65
2023-02-08T00:23:46.684Z,101897.69
2023-02-08T00:26:15.527Z,101894.46
2023-02-08T00:28:44.562Z,101902.37
2023-02-08T00:31:13.128Z,101908.25
2023-02-08T00:33:42.963Z,101912.48
2023-02-08T00:36:12.062Z,101910.36
2023-02-08T00:38:45.972Z,101907.80
2023-02-08T00:41:14.564Z,101912.31
2023-02-08T00:43:45.909Z,101919.61
2023-02-08T00:46:15.468Z,101924.90
2023-02-08T00:48:48.000Z,101926.65
2023-02-08T00:51:16.380Z,101931.71
2023-02-08T00:53:46.088Z,101936.59
2023-02-08T00:56:16.726Z,101938.20
2023-02-08T00:58:47.156Z,101942.55
2023-02-08T01:01:15.825Z,101944.84
2023-02-08T01:03:45.149Z,101943.92
2023-02-08T01:06:17.128Z,101950.30
2023-02-08T01:08:47.033Z,101959.54
2023-02-08T01:11:27.913Z,101961.70
2023-02-08T01:13:57.741Z,101962.86
2023-02-08T01:16:30.568Z,101964.40
2023-02-08T01:19:02.107Z,101964.06
2023-02-08T01:21:32.881Z,101964.21
2023-02-08T01:24:01.390Z,101966.90
2023-02-08T01:26:32.741Z,101969.31
2023-02-08T01:29:01.435Z,101966.66
2023-02-08T01:31:32.592Z,101971.17
2023-02-08T01:34:01.790Z,101975.54
2023-02-08T01:36:30.734Z,101980.13
2023-02-08T01:38:59.361Z,101982.07
2023-02-08T01:41:32.609Z,101989.72
2023-02-08T01:44:13.723Z,101992.25
2023-02-08T01:46:45.024Z,101996.98
2023-02-08T01:49:13.278Z,101998.63
2023-02-08T01:51:45.677Z,102000.40
2023-02-08T01:54:14.332Z,102005.66
2023-02-08T01:56:45.895Z,101995.09
2023-02-08T01:59:20.719Z,102010.34
2023-02-08T02:01:49.717Z,102011.94
2023-02-08T02:04:18.208Z,102014.04
2023-02-08T02:06:48.956Z,102014.80
2023-02-08T02:09:32.987Z,102015.34
2023-02-08T02:12:03.008Z,102015.24
2023-02-08T02:14:31.518Z,102014.45
2023-02-08T02:17:01.003Z,102020.69
2023-02-08T02:19:42.901Z,102026.27
2023-02-08T02:22:43.530Z,102026.41
2023-02-08T02:25:24.107Z,102031.77
2023-02-08T02:28:30.686Z,102034.29
2023-02-08T02:31:12.586Z,102028.14
2023-02-08T02:33:43.938Z,102039.88
2023-02-08T02:36:18.004Z,102046.10
2023-02-08T02:39:14.081Z,102048.68
2023-02-08T02:42:08.167Z,102050.66
2023-02-08T02:44:42.796Z,102051.96
2023-02-08T02:47:40.177Z,102050.00
2023-02-08T02:50:20.827Z,102046.33
2023-02-08T02:52:56.379Z,102056.39
2023-02-08T02:55:25.372Z,102059.57
2023-02-08T02:57:54.423Z,102065.30
2023-02-08T03:00:24.698Z,102062.98
2023-02-08T03:02:53.490Z,102060.42
2023-02-08T03:05:22.189Z,102067.47
2023-02-08T03:08:12.576Z,102068.94
2023-02-08T03:11:17.006Z,102066.45
2023-02-08T03:14:02.075Z,102068.56
2023-02-08T03:16:42.952Z,102075.84
2023-02-08T03:19:17.166Z,102082.89
2023-02-08T03:21:51.492Z,102088.66
2023-02-08T03:24:49.774Z,102088.30
2023-02-08T03:27:40.887Z,102094.23
2023-02-08T03:30:34.706Z,102095.86
2023-02-08T03:33:07.445Z,102096.75
2023-02-08T03:35:48.629Z,102102.11
2023-02-08T03:38:32.370Z,102088.48
2023-02-08T03:41:01.474Z,102090.86
2023-02-08T03:43:33.030Z,102104.18
2023-02-08T03:46:22.482Z,102107.52
2023-02-08T03:48:54.883Z,102108.80
2023-02-08T03:51:23.361Z,102113.18
2023-02-08T03:53:51.747Z,102118.20
2023-02-08T03:56:44.902Z,102124.66
2023-02-08T03:59:16.665Z,102135.50
2023-02-08T04:01:52.528Z,102133.64
2023-02-08T04:04:21.003Z,102138.61
2023-02-08T04:06:49.631Z,102140.31
2023-02-08T04:09:18.394Z,102143.48
2023-02-08T04:11:47.201Z,102146.28
2023-02-08T04:14:15.869Z,102148.40
2023-02-08T04:16:44.243Z,102148.39
2023-02-08T04:19:12.828Z,102146.70
2023-02-08T04:21:41.520Z,102146.83
2023-02-08T04:24:10.002Z,102155.23
2023-02-08T04:26:38.802Z,102159.77
2023-02-08T04:29:07.283Z,102161.60
2023-02-08T04:31:35.893Z,102158.77
2023-02-08T04:34:04.559Z,102162.15
2023-02-08T04:36:33.349Z,102163.45
2023-02-08T04:39:02.349Z,102168.67
2023-02-08T04:41:30.932Z,102175.17
2023-02-08T04:43:59.316Z,102175.23
2023-02-08T04:46:27.577Z,102175.13
2023-02-08T04:48:57.983Z,102178.92
2023-02-08T04:51:27.229Z,102177.39
2023-02-08T04:53:55.712Z,102180.02
2023-02-08T04:56:24.301Z,102181.66
2023-02-08T04:58:52.783Z,102180.02
2023-02-08T05:01:21.183Z,102186.60
2023-02-08T05:03:49.546Z,102193.36
2023-02-08T05:06:17.940Z,102195.80
2023-02-08T05:08:46.714Z,102200.02
2023-02-08T05:11:21.242Z,102184.48
2023-02-08T05:13:50.042Z,102202.40
2023-02-08T05:16:18.878Z,102203.84
2023-02-08T05:18:48.333Z,102209.82
2023-02-08T05:21:16.918Z,102205.86
2023-02-08T05:23:46.852Z,102210.92
2023-02-08T05:26:15.728Z,102215.21
2023-02-08T05:28:44.316Z,102218.13
2023-02-08T05:31:14.481Z,102222.69
2023-02-08T05:33:42.922Z,102226.89
2023-02-08T05:36:11.565Z,102240.30
2023-02-08T05:38:39.993Z,102239.91
2023-02-08T05:41:08.993Z,102241.04
2023-02-08T05:43:37.678Z,102244.84
2023-02-08T05:46:06.060Z,102246.55
2023-02-08T05:48:34.613Z,102250.15
2023-02-08T05:51:03.540Z,102246.52
2023-02-08T05:53:31.923Z,102246.98
2023-02-08T05:56:00.302Z,102253.47
2023-02-08T05:58:29.197Z,102255.89
2023-02-08T06:00:57.688Z,102260.25
2023-02-08T06:03:26.169Z,102261.61
2023-02-08T06:05:54.753Z,102263.46
2023-02-08T06:08:23.138Z,102270.41
2023-02-08T06:10:51.834Z,102273.80
2023-02-08T06:13:20.203Z,102269.41
2023-02-08T06:15:49.301Z,102274.38
2023-02-08T06:18:17.588Z,102277.41
2023-02-08T06:20:46.270Z,102276.77
2023-02-08T06:23:14.863Z,102274.85
2023-02-08T06:25:45.695Z,102284.69
2023-02-08T06:28:14.250Z,102287.31
2023-02-08T06:30:43.078Z,102289.92
2023-02-08T06:33:13.411Z,102298.69
2023-02-08T06:35:47.828Z,102299.30
2023-02-08T06:38:16.322Z,102293.38
2023-02-08T06:40:46.948Z,102295.63
2023-02-08T06:43:15.849Z,102297.15
2023-02-08T06:45:47.522Z,102305.23
2023-02-08T06:48:16.216Z,102306.17
2023-02-08T06:50:44.698Z,102310.46
2023-02-08T06:53:13.470Z,102302.18
2023-02-08T06:55:41.852Z,102304.90
2023-02-08T06:58:11.457Z,102300.66
2023-02-08T07:00:40.061Z,102302.06
2023-02-08T07:03:09.347Z,102302.89
2023-02-08T07:05:39.984Z,102303.82
2023-02-08T07:08:08.773Z,102306.53
2023-02-08T07:10:38.911Z,102311.31
2023-02-08T07:13:07.587Z,102312.78
2023-02-08T07:15:36.381Z,102310.22
2023-02-08T07:18:04.762Z,102308.60
2023-02-08T07:20:33.141Z,102308.30
2023-02-08T07:23:01.732Z,102305.42
2023-02-08T07:25:30.316Z,102299.11
2023-02-08T07:27:59.275Z,102299.41
2023-02-08T07:30:27.829Z,102300.14
2023-02-08T07:32:56.388Z,102306.08
2023-02-08T07:35:24.764Z,102310.21
2023-02-08T07:37:53.147Z,102309.13
2023-02-08T07:40:21.632Z,102314.51
2023-02-08T07:42:50.022Z,102317.41
2023-02-08T07:45:25.977Z,102321.74
2023-02-08T07:47:54.368Z,102318.73
2023-02-08T07:50:23.046Z,102316.17
2023-02-08T07:52:51.534Z,102314.84
2023-02-08T07:55:20.837Z,102313.05
2023-02-08T07:57:50.053Z,102313.55
2023-02-08T08:00:19.451Z,102313.40
2023-02-08T08:02:50.798Z,102316.70
2023-02-08T08:05:19.180Z,102313.43
2023-02-08T08:07:48.067Z,102317.87
2023-02-08T08:10:17.166Z,102315.67
2023-02-08T08:12:45.651Z,102315.02
2023-02-08T08:15:14.649Z,102308.85
2023-02-08T08:17:43.772Z,102308.06
2023-02-08T08:20:12.234Z,102312.84
2023-02-08T08:22:40.712Z,102312.47
2023-02-08T08:25:09.195Z,102319.66
2023-02-08T08:27:38.395Z,102321.41
2023-02-08T08:30:12.229Z,102322.98
2023-02-08T08:32:40.801Z,102321.22
2023-02-08T08:35:09.476Z,102314.60
2023-02-08T08:37:37.987Z,102314.36
2023-02-08T08:40:07.418Z,102316.23
2023-02-08T08:42:36.802Z,102317.09
2023-02-08T08:45:05.943Z,102317.46
2023-02-08T08:47:34.865Z,102320.97
2023-02-08T08:50:03.355Z,102323.51
2023-02-08T08:52:32.132Z,102318.88
2023-02-08T08:55:01.950Z,102317.02
2023-02-08T08:57:30.841Z,102320.46
2023-02-08T08:59:59.121Z,102322.15
2023-02-08T09:02:27.611Z,102326.36
2023-02-08T09:05:00.179Z,102332.23
2023-02-08T09:07:28.668Z,102329.07
2023-02-08T09:09:57.245Z,102324.98
2023-02-08T09:12:25.802Z,102331.46
2023-02-08T09:14:54.221Z,102324.31
2023-02-08T09:17:22.713Z,102326.76
2023-02-08T09:19:51.286Z,102322.91
2023-02-08T09:22:20.578Z,102319.94
2023-02-08T09:24:49.063Z,102316.23
2023-02-08T09:27:19.389Z,102310.83
2023-02-08T09:29:47.875Z,102312.69
2023-02-08T09:32:16.299Z,102316.70
2023-02-08T09:34:44.629Z,102321.23
2023-02-08T09:37:13.216Z,102318.12
2023-02-08T09:39:41.599Z,102320.05
2023-02-08T09:42:13.362Z,102315.24
2023-02-08T09:44:47.782Z,102311.30
2023-02-08T09:47:36.328Z,102303.75
2023-02-08T09:50:13.522Z,102296.82
2023-02-08T09:52:44.260Z,102295.31
2023-02-08T09:55:36.262Z,102291.52
2023-02-08T09:58:42.154Z,102291.98
2023-02-08T10:01:20.268Z,102295.98
2023-02-08T10:03:48.960Z,102290.07
2023-02-08T10:06:18.917Z,102285.45
2023-02-08T10:08:51.755Z,102284.89
2023-02-08T10:11:28.943Z,102281.11
2023-02-08T10:14:08.073Z,102278.36
2023-02-08T10:20:09.855Z,102277.20
2023-02-08T10:22:57.179Z,102271.59
2023-02-08T10:25:31.676Z,102266.73
2023-02-08T10:28:25.311Z,102267.84
2023-02-08T10:31:04.916Z,102266.98
2023-02-08T10:33:44.566Z,102266.02
2023-02-08T10:36:19.086Z,102269.56
2023-02-08T10:38:49.923Z,102272.34
2023-02-08T10:41:24.290Z,102269.20
2023-02-08T10:44:02.653Z,102270.42
2023-02-08T10:46:36.152Z,102266.64
2023-02-08T10:49:23.475Z,102260.30
2023-02-08T10:51:52.801Z,102258.88
2023-02-08T10:54:21.260Z,102255.73
2023-02-08T10:57:02.745Z,102261.38
2023-02-08T10:59:46.379Z,102263.55
2023-02-08T11:02:26.674Z,102262.99
2023-02-08T11:05:19.489Z,102264.58
2023-02-08T11:08:17.263Z,102264.08
2023-02-08T11:11:00.913Z,102270.27
2023-02-08T11:13:51.608Z,102271.95
2023-02-08T11:16:24.368Z,102272.73
2023-02-08T11:18:56.369Z,102272.23
2023-02-08T11:21:26.508Z,102274.39
2023-02-08T11:23:55.261Z,102277.64
2023-02-08T11:26:33.063Z,102261.20
2023-02-08T11:29:25.308Z,102277.66
2023-02-08T11:32:02.702Z,102280.56
2023-02-08T11:34:33.021Z,102282.09
2023-02-08T11:37:03.389Z,102282.66
2023-02-08T11:39:51.892Z,102284.41
2023-02-08T11:42:30.116Z,102286.36
2023-02-08T11:44:59.935Z,102285.08
2023-02-08T11:47:29.844Z,102281.29
2023-02-08T11:49:59.554Z,102277.23
2023-02-08T11:52:35.619Z,102274.31
2023-02-08T11:55:14.133Z,102276.27
2023-02-08T11:58:00.749Z,102275.21
2023-02-08T12:00:36.920Z,102270.15
2023-02-08T12:03:18.574Z,102265.64
2023-02-08T12:06:16.781Z,102266.50
2023-02-08T12:08:58.370Z,102267.03
2023-02-08T12:11:43.339Z,102268.95
2023-02-08T12:14:24.724Z,102268.45
2023-02-08T12:17:10.409Z,102270.31
2023-02-08T12:19:41.752Z,102272.98
2023-02-08T12:22:24.172Z,102272.33
2023-02-08T12:25:09.857Z,102269.48
2023-02-08T12:27:43.387Z,102272.16
2023-02-08T12:30:26.683Z,102267.91
2023-02-08T12:33:24.044Z,102267.11
2023-02-08T12:36:05.603Z,102269.16
2023-02-08T12:39:19.447Z,102263.58
2023-02-08T12:42:25.729Z,102271.77
2023-02-08T12:45:22.798Z,102271.95
2023-02-08T12:48:20.584Z,102267.92
2023-02-08T12:51:00.422Z,102264.26
2023-02-08T12:53:33.957Z,102262.06
2023-02-08T12:56:05.477Z,102257.86
2023-02-08T12:58:40.922Z,102260.70
2023-02-08T13:01:12.261Z,102261.36
2023-02-08T13:04:13.730Z,102257.39
2023-02-08T13:06:47.684Z,102255.77
2023-02-08T13:09:35.751Z,102254.30
2023-02-08T13:12:46.669Z,102246.55
2023-02-08T13:15:30.937Z,102244.19
2023-02-08T13:18:19.473Z,102245.05
2023-02-08T13:21:02.299Z,102239.70
2023-02-08T13:23:51.650Z,102242.23
2023-02-08T13:26:31.926Z,102238.79
2023-02-08T13:29:02.618Z,102237.81
2023-02-08T13:31:45.600Z,102234.30
2023-02-08T13:34:30.346Z,102230.37
2023-02-08T13:37:02.098Z,102231.62
2023-02-08T13:39:37.671Z,102228.27
2023-02-08T13:42:07.514Z,102226.23
2023-02-08T13:44:38.058Z,102224.84
2023-02-08T13:47:06.908Z,102222.34
2023-02-08T13:49:50.437Z,102221.06
2023-02-08T13:52:46.897Z,102218.83
2023-02-08T13:55:31.766Z,102223.33
2023-02-08T13:58:02.124Z,102225.10
2023-02-08T14:00:34.038Z,102226.70
2023-02-08T14:03:03.799Z,102229.64
2023-02-08T14:05:47.489Z,102232.56
2023-02-08T14:08:26.014Z,102232.95
2023-02-08T14:11:35.452Z,102228.44
2023-02-08T14:14:05.467Z,102226.21
2023-02-08T14:16:36.123Z,102229.24
2023-02-08T14:19:06.463Z,102232.11
2023-02-08T14:21:40.236Z,102233.23
2023-02-08T14:24:27.665Z,102232.24
2023-02-08T14:27:21.793Z,102238.07
2023-02-08T14:30:05.999Z,102235.70
2023-02-08T14:32:37.555Z,102238.80
2023-02-08T14:35:13.411Z,102239.79
2023-02-08T14:37:43.647Z,102238.33
2023-02-08T14:40:16.874Z,102235.83
2023-02-08T14:43:01.503Z,102239.05
2023-02-08T14:45:33.753Z,102239.35
2023-02-08T14:48:28.667Z,102241.16
2023-02-08T14:51:00.326Z,102246.27
2023-02-08T14:53:50.111Z,102247.02
2023-02-08T14:56:47.368Z,102245.80
2023-02-08T14:59:17.158Z,102249.31
2023-02-08T15:02:02.782Z,102246.29
2023-02-08T15:04:31.196Z,102246.66
2023-02-08T15:07:17.981Z,102248.34
2023-02-08T15:09:46.855Z,102242.94
2023-02-08T15:12:26.095Z,102243.83
2023-02-08T15:14:58.319Z,102245.16
2023-02-08T15:17:35.353Z,102247.93
2023-02-08T15:20:08.533Z,102243.64
2023-02-08T15:22:38.361Z,102244.56
2023-02-08T15:25:22.626Z,102245.14
2023-02-08T15:27:53.301Z,102240.90
2023-02-08T15:30:35.908Z,102245.84
2023-02-08T15:33:09.976Z,102243.83
2023-02-08T15:35:38.355Z,102246.80
2023-02-08T15:38:20.975Z,102246.42
2023-02-08T15:41:07.577Z,102246.52
2023-02-08T15:43:36.935Z,102241.55
2023-02-08T15:46:24.010Z,102245.32
2023-02-08T15:48:52.381Z,102249.41
2023-02-08T15:51:23.326Z,102252.45
2023-02-08T15:53:52.932Z,102251.20
2023-02-08T15:56:36.450Z,102251.77
2023-02-08T15:59:06.593Z,102250.34
2023-02-08T16:01:35.143Z,102253.90
2023-02-08T16:04:12.717Z,102255.36
2023-02-08T16:06:48.528Z,102248.81
2023-02-08T16:09:19.978Z,102254.23
2023-02-08T16:11:50.204Z,102250.41
2023-02-08T16:14:23.718Z,102250.67
2023-02-08T16:16:55.984Z,102253.46
2023-02-08T16:19:32.058Z,102252.98
2023-02-08T16:22:22.238Z,102259.61
2023-02-08T16:24:51.138Z,102262.60
2023-02-08T16:27:27.808Z,102264.84
2023-02-08T16:29:56.613Z,102260.92
2023-02-08T16:32:32.982Z,102261.09
2023-02-08T16:35:11.069Z,102259.41
2023-02-08T16:37:39.963Z,102261.14
2023-02-08T16:40:49.202Z,102257.14
2023-02-08T16:43:26.319Z,102255.77
2023-02-08T16:46:10.207Z,102253.83
2023-02-08T16:48:43.638Z,102255.16
2023-02-08T16:51:17.233Z,102253.68
2023-02-08T16:53:47.981Z,102252.35
2023-02-08T16:56:16.555Z,102254.39
2023-02-08T16:58:45.356Z,102250.50
2023-02-08T17:01:14.444Z,102255.48
2023-02-08T17:03:43.050Z,102256.04
2023-02-08T17:06:38.954Z,102255.79
2023-02-08T17:09:09.628Z,102254.64
2023-02-08T17:11:38.174Z,102252.38
2023-02-08T17:14:07.011Z,102248.98
2023-02-08T17:16:37.215Z,102251.42
2023-02-08T17:19:05.777Z,102251.79
2023-02-08T17:21:34.665Z,102254.44
2023-02-08T17:24:03.450Z,102252.08
2023-02-08T17:26:37.636Z,102257.71
2023-02-08T17:29:06.049Z,102257.17
2023-02-08T17:31:36.223Z,102255.54
2023-02-08T17:34:04.775Z,102253.80
2023-02-08T17:36:35.169Z,102250.73
2023-02-08T17:39:05.621Z,102247.81
2023-02-08T17:41:35.006Z,102245.93
2023-02-08T17:44:04.449Z,102241.59
2023-02-08T17:46:35.015Z,102238.44
2023-02-08T17:49:04.866Z,102237.95
2023-02-08T17:51:34.574Z,102239.98
2023-02-08T17:54:05.119Z,102239.27
2023-02-08T17:56:36.865Z,102239.90
2023-02-08T17:59:05.820Z,102241.21
2023-02-08T18:01:35.323Z,102244.09
2023-02-08T18:04:04.037Z,102245.31
2023-02-08T18:06:34.361Z,102239.20
2023-02-08T18:09:02.907Z,102238.77
2023-02-08T18:11:31.638Z,102241.52
2023-02-08T18:14:00.638Z,102242.88
2023-02-08T18:16:31.043Z,102239.75
2023-02-08T18:19:01.513Z,102235.84
2023-02-08T18:21:33.270Z,102231.98
2023-02-08T18:24:05.512Z,102232.71
2023-02-08T18:26:34.839Z,102235.86
2023-02-08T18:29:03.631Z,102233.38
2023-02-08T18:31:32.320Z,102230.38
2023-02-08T18:34:01.924Z,102227.80
2023-02-08T18:36:30.483Z,102230.21
2023-02-08T18:38:58.961Z,102232.08
2023-02-08T18:41:28.544Z,102233.48
2023-02-08T18:43:57.562Z,102231.30
2023-02-08T18:46:27.026Z,102224.94
2023-02-08T18:48:56.084Z,102227.46
2023-02-08T18:51:24.946Z,102222.06
2023-02-08T18:53:54.443Z,102218.93
2023-02-08T18:56:24.282Z,102222.04
2023-02-08T18:58:54.175Z,102217.74
2023-02-08T19:01:24.151Z,102222.95
2023-02-08T19:03:53.529Z,102224.47
2023-02-08T19:06:24.934Z,102221.66
2023-02-08T19:08:55.726Z,102221.22
2023-02-08T19:11:26.436Z,102216.93
2023-02-08T19:13:58.839Z,102217.15
2023-02-08T19:16:27.946Z,102212.81
2023-02-08T19:18:56.703Z,102213.42
2023-02-08T19:21:26.084Z,102215.30
2023-02-08T19:23:54.775Z,102212.73
2023-02-08T19:26:25.142Z,102209.40
2023-02-08T19:28:57.849Z,102211.42
2023-02-08T19:31:27.408Z,102213.41
2023-02-08T19:33:58.937Z,102216.71
2023-02-08T19:36:29.793Z,102216.69
2023-02-08T19:38:59.713Z,102217.55
2023-02-08T19:41:33.544Z,102212.13
2023-02-08T19:44:07.102Z,102216.14
2023-02-08T19:46:38.913Z,102219.81
2023-02-08T19:49:07.773Z,102221.10
2023-02-08T19:51:37.568Z,102218.55
2023-02-08T19:54:08.817Z,102219.46
2023-02-08T19:56:38.538Z,102218.68
2023-02-08T19:59:08.456Z,102217.22
2023-02-08T20:01:37.342Z,102216.80
2023-02-08T20:04:06.241Z,102216.66
2023-02-08T20:06:37.093Z,102210.58
2023-02-08T20:09:07.092Z,102216.73
2023-02-08T20:11:45.121Z,102213.30
2023-02-08T20:14:23.627Z,102209.66
2023-02-08T20:16:52.234Z,102209.38
2023-02-08T20:19:20.676Z,102213.23
2023-02-08T20:21:49.363Z,102211.39
2023-02-08T20:24:18.473Z,102206.07
2023-02-08T20:26:47.348Z,102209.25
2023-02-08T20:29:16.339Z,102200.35
2023-02-08T20:31:49.498Z,102188.61
2023-02-08T20:34:19.122Z,102182.16
2023-02-08T20:37:06.935Z,102180.16
2023-02-08T20:39:37.038Z,102176.69
2023-02-08T20:42:06.530Z,102179.52
2023-02-08T20:44:34.881Z,102180.88
2023-02-08T20:47:03.676Z,102180.63
2023-02-08T20:49:32.671Z,102180.88
2023-02-08T20:52:01.679Z,102179.92
2023-02-08T20:54:31.194Z,102182.48
2023-02-08T20:56:59.668Z,102168.58
2023-02-08T20:59:28.038Z,102180.91
2023-02-08T21:01:56.633Z,102180.05
2023-02-08T21:04:26.641Z,102177.27
2023-02-08T21:06:55.148Z,102179.10
2023-02-08T21:09:23.808Z,102177.77
2023-02-08T21:11:52.597Z,102176.45
2023-02-08T21:14:23.552Z,102170.71
2023-02-08T21:16:59.030Z,102162.90
2023-02-08T21:19:28.805Z,102159.59
2023-02-08T21:21:59.188Z,102159.79
2023-02-08T21:24:27.908Z,102161.73
2023-02-08T21:26:56.700Z,102158.09
2023-02-08T21:29:25.500Z,102161.35
2023-02-08T21:31:56.523Z,102158.06
2023-02-08T21:34:25.321Z,102160.19
2023-02-08T21:36:53.803Z,102162.30
2023-02-08T21:39:23.619Z,102158.91
2023-02-08T21:41:52.572Z,102156.20
2023-02-08T21:44:21.707Z,102154.81
2023-02-08T21:46:50.090Z,102157.50
2023-02-08T21:49:37.209Z,102164.80
2023-02-08T21:52:24.451Z,102170.25
2023-02-08T21:54:53.885Z,102168.65
2023-02-08T21:57:23.559Z,102172.11
2023-02-08T21:59:53.598Z,102168.48
2023-02-08T22:02:23.685Z,102167.02
2023-02-08T22:04:53.315Z,102164.41
2023-02-08T22:07:22.492Z,102158.33
2023-02-08T22:09:51.080Z,102154.34
2023-02-08T22:12:21.042Z,102151.40
2023-02-08T22:14:49.487Z,102148.42
2023-02-08T22:17:17.814Z,102152.68
2023-02-08T22:19:46.252Z,102150.92
2023-02-08T22:22:14.619Z,102147.75
2023-02-08T22:24:43.019Z,102144.74
2023-02-08T22:27:12.098Z,102143.64
2023-02-08T22:29:40.484Z,102144.00
2023-02-08T22:32:10.235Z,102139.32
2023-02-08T22:37:39.003Z,102137.02
2023-02-08T22:40:08.105Z,102130.61
2023-02-08T22:42:39.045Z,102125.52
2023-02-08T22:45:08.042Z,102119.02
2023-02-08T22:47:37.035Z,102116.00
2023-02-08T22:50:06.941Z,102110.11
2023-02-08T22:52:35.850Z,102108.42
2023-02-08T22:55:04.532Z,102106.84
2023-02-08T22:57:34.253Z,102106.16
2023-02-08T23:00:09.527Z,102111.35
2023-02-08T23:02:38.828Z,102110.80
2023-02-08T23:05:07.382Z,102105.50
2023-02-08T23:07:36.374Z,102099.50
2023-02-08T23:10:06.220Z,102101.09
2023-02-08T23:12:34.870Z,102098.65
2023-02-08T23:15:03.247Z,102096.08
2023-02-08T23:17:32.672Z,102095.45
2023-02-08T23:20:01.440Z,102092.26
2023-02-08T23:22:30.334Z,102097.14
2023-02-08T23:24:58.822Z,102098.33
2023-02-08T23:27:27.400Z,102097.23
2023-02-08T23:29:56.092Z,102100.69
2023-02-08T23:32:24.571Z,102098.70
2023-02-08T23:34:53.263Z,102092.30
2023-02-08T23:37:21.741Z,102080.52
2023-02-08T23:39:50.226Z,102097.16
2023-02-08T23:42:27.619Z,102097.02
2023-02-08T23:44:57.382Z,102087.94
2023-02-08T23:47:26.453Z,102088.27
2023-02-08T23:49:54.812Z,102086.65
2023-02-08T23:52:23.215Z,102085.54
2023-02-08T23:54:51.780Z,102077.38
2023-02-08T23:57:20.264Z,102076.74
2023-02-08T23:59:48.851Z,102073.32
